sensor_id;sensor_type;location;lat;lon;timestamp;temperature;humidity
57026;DHT22;43961;52.940;6.834;2023-02-11T00:01:36;6.40;99.90
57026;DHT22;43961;52.940;6.834;2023-02-11T00:04:03;6.40;99.90
57026;DHT22;43961;52.940;6.834;2023-02-11T00:06:31;6.40;99.90
57026;DHT22;43961;52.940;6.834;2023-02-11T00:08:57;6.40;99.90
57026;DHT22;43961;52.940;6.834;2023-02-11T00:11:25;6.40;99.90
57026;DHT22;43961;52.940;6.834;2023-02-11T00:13:58;6.40;99.90
57026;DHT22;43961;52.940;6.834;2023-02-11T00:16:24;6.40;99.90
57026;DHT22;43961;52.940;6.834;2023-02-11T00:18:50;6.40;99.90
57026;DHT22;43961;52.940;6.834;2023-02-11T00:21:21;6.50;99.90
57026;DHT22;43961;52.940;6.834;2023-02-11T00:23:47;6.50;99.90
57026;DHT22;43961;52.940;6.834;2023-02-11T00:26:16;6.40;99.90
57026;DHT22;43961;52.940;6.834;2023-02-11T00:28:43;6.50;99.90
57026;DHT22;43961;52.940;6.834;2023-02-11T00:31:08;6.40;99.90
57026;DHT22;43961;52.940;6.834;2023-02-11T00:33:34;6.40;99.90
57026;DHT22;43961;52.940;6.834;2023-02-11T00:36:08;6.50;99.90
57026;DHT22;43961;52.940;6.834;2023-02-11T00:38:34;6.50;99.90
57026;DHT22;43961;52.940;6.834;2023-02-11T00:41:00;6.50;99.90
57026;DHT22;43961;52.940;6.834;2023-02-11T00:43:26;6.40;99.90
57026;DHT22;43961;52.940;6.834;2023-02-11T00:45:52;6.50;99.90
57026;DHT22;43961;52.940;6.834;2023-02-11T00:48:18;6.50;99.90
57026;DHT22;43961;52.940;6.834;2023-02-11T00:50:43;6.50;99.90
57026;DHT22;43961;52.940;6.834;2023-02-11T00:53:09;6.50;99.90
57026;DHT22;43961;52.940;6.834;2023-02-11T00:55:35;6.50;99.90
57026;DHT22;43961;52.940;6.834;2023-02-11T00:58:01;6.40;99.90
57026;DHT22;43961;52.940;6.834;2023-02-11T01:00:27;6.50;99.90
57026;DHT22;43961;52.940;6.834;2023-02-11T01:02:53;6.50;99.90
57026;DHT22;43961;52.940;6.834;2023-02-11T01:05:19;6.50;99.90
57026;DHT22;43961;52.940;6.834;2023-02-11T01:07:45;6.50;99.90
57026;DHT22;43961;52.940;6.834;2023-02-11T01:10:12;6.50;99.90
57026;DHT22;43961;52.940;6.834;2023-02-11T01:12:38;6.50;99.90
57026;DHT22;43961;52.940;6.834;2023-02-11T01:15:06;6.40;99.90
57026;DHT22;43961;52.940;6.834;2023-02-11T01:17:33;6.40;99.90
57026;DHT22;43961;52.940;6.834;2023-02-11T01:20:02;6.40;99.90
57026;DHT22;43961;52.940;6.834;2023-02-11T01:22:29;6.40;99.90
57026;DHT22;43961;52.940;6.834;2023-02-11T01:24:55;6.40;99.90
57026;DHT22;43961;52.940;6.834;2023-02-11T01:27:20;6.30;99.90
57026;DHT22;43961;52.940;6.834;2023-02-11T01:29:46;6.30;99.90
57026;DHT22;43961;52.940;6.834;2023-02-11T01:32:11;6.40;99.90
57026;DHT22;43961;52.940;6.834;2023-02-11T01:34:37;6.30;99.90
57026;DHT22;43961;52.940;6.834;2023-02-11T01:37:03;6.30;99.90
57026;DHT22;43961;52.940;6.834;2023-02-11T01:39:32;6.30;99.90
57026;DHT22;43961;52.940;6.834;2023-02-11T01:41:58;6.30;99.90
57026;DHT22;43961;52.940;6.834;2023-02-11T01:44:36;6.30;99.90
57026;DHT22;43961;52.940;6.834;2023-02-11T01:47:02;6.30;99.90
57026;DHT22;43961;52.940;6.834;2023-02-11T01:49:55;6.30;99.90
57026;DHT22;43961;52.940;6.834;2023-02-11T01:52:26;6.40;99.90
57026;DHT22;43961;52.940;6.834;2023-02-11T01:55:03;6.30;99.90
57026;DHT22;43961;52.940;6.834;2023-02-11T01:57:51;6.30;99.90
57026;DHT22;43961;52.940;6.834;2023-02-11T02:00:29;6.30;99.90
57026;DHT22;43961;52.940;6.834;2023-02-11T02:03:17;6.30;99.90
57026;DHT22;43961;52.940;6.834;2023-02-11T02:05:53;6.30;99.90
57026;DHT22;43961;52.940;6.834;2023-02-11T02:08:41;6.30;99.90
57026;DHT22;43961;52.940;6.834;2023-02-11T02:11:08;6.30;99.90
57026;DHT22;43961;52.940;6.834;2023-02-11T02:13:34;6.30;99.90
57026;DHT22;43961;52.940;6.834;2023-02-11T02:16:06;6.30;99.90
57026;DHT22;43961;52.940;6.834;2023-02-11T02:18:47;6.30;99.90
57026;DHT22;43961;52.940;6.834;2023-02-11T02:21:51;6.30;99.90
57026;DHT22;43961;52.940;6.834;2023-02-11T02:24:58;6.30;99.90
57026;DHT22;43961;52.940;6.834;2023-02-11T02:27:41;6.30;99.90
57026;DHT22;43961;52.940;6.834;2023-02-11T02:36:17;6.30;99.90
57026;DHT22;43961;52.940;6.834;2023-02-11T02:41:29;6.30;99.90
57026;DHT22;43961;52.940;6.834;2023-02-11T02:43:55;6.30;99.90
57026;DHT22;43961;52.940;6.834;2023-02-11T02:46:31;6.40;99.90
57026;DHT22;43961;52.940;6.834;2023-02-11T02:48:58;6.40;99.90
57026;DHT22;43961;52.940;6.834;2023-02-11T02:54:21;6.40;99.90
57026;DHT22;43961;52.940;6.834;2023-02-11T03:03:09;6.40;99.90
57026;DHT22;43961;52.940;6.834;2023-02-11T03:06:13;6.40;99.90
57026;DHT22;43961;52.940;6.834;2023-02-11T03:09:05;6.40;99.90
57026;DHT22;43961;52.940;6.834;2023-02-11T03:11:32;6.40;99.90
57026;DHT22;43961;52.940;6.834;2023-02-11T03:14:00;6.40;99.90
57026;DHT22;43961;52.940;6.834;2023-02-11T03:16:27;6.40;99.90
57026;DHT22;43961;52.940;6.834;2023-02-11T03:19:07;6.40;99.90
57026;DHT22;43961;52.940;6.834;2023-02-11T03:21:36;6.40;99.90
57026;DHT22;43961;52.940;6.834;2023-02-11T03:24:07;6.40;99.90
57026;DHT22;43961;52.940;6.834;2023-02-11T03:26:39;6.50;99.90
57026;DHT22;43961;52.940;6.834;2023-02-11T03:29:50;6.50;99.90
57026;DHT22;43961;52.940;6.834;2023-02-11T03:32:30;6.50;99.90
57026;DHT22;43961;52.940;6.834;2023-02-11T03:35:09;6.50;99.90
57026;DHT22;43961;52.940;6.834;2023-02-11T03:37:51;6.50;99.90
57026;DHT22;43961;52.940;6.834;2023-02-11T03:40:25;6.50;99.90
57026;DHT22;43961;52.940;6.834;2023-02-11T03:43:02;6.50;99.90
57026;DHT22;43961;52.940;6.834;2023-02-11T03:45:29;6.60;99.90
57026;DHT22;43961;52.940;6.834;2023-02-11T03:48:00;6.60;99.90
57026;DHT22;43961;52.940;6.834;2023-02-11T03:50:28;6.60;99.90
57026;DHT22;43961;52.940;6.834;2023-02-11T03:52:59;6.60;99.90
57026;DHT22;43961;52.940;6.834;2023-02-11T03:55:27;6.60;99.90
57026;DHT22;43961;52.940;6.834;2023-02-11T03:57:55;6.60;99.90
57026;DHT22;43961;52.940;6.834;2023-02-11T04:00:32;6.70;99.90
57026;DHT22;43961;52.940;6.834;2023-02-11T04:02:58;6.70;99.90
57026;DHT22;43961;52.940;6.834;2023-02-11T04:05:23;6.70;99.90
57026;DHT22;43961;52.940;6.834;2023-02-11T04:07:49;6.70;99.90
57026;DHT22;43961;52.940;6.834;2023-02-11T04:10:15;6.70;99.90
57026;DHT22;43961;52.940;6.834;2023-02-11T04:12:40;6.70;99.90
57026;DHT22;43961;52.940;6.834;2023-02-11T04:15:07;6.70;99.90
57026;DHT22;43961;52.940;6.834;2023-02-11T04:17:33;6.70;99.90
57026;DHT22;43961;52.940;6.834;2023-02-11T04:19:58;6.70;99.90
57026;DHT22;43961;52.940;6.834;2023-02-11T04:22:24;6.70;99.90
57026;DHT22;43961;52.940;6.834;2023-02-11T04:24:50;6.70;99.90
57026;DHT22;43961;52.940;6.834;2023-02-11T04:27:15;6.70;99.90
57026;DHT22;43961;52.940;6.834;2023-02-11T04:29:41;6.70;99.90
57026;DHT22;43961;52.940;6.834;2023-02-11T04:32:07;6.70;99.90
57026;DHT22;43961;52.940;6.834;2023-02-11T04:34:33;6.70;99.90
57026;DHT22;43961;52.940;6.834;2023-02-11T04:36:59;6.70;99.90
57026;DHT22;43961;52.940;6.834;2023-02-11T04:39:24;6.70;99.90
57026;DHT22;43961;52.940;6.834;2023-02-11T04:41:50;6.70;99.90
57026;DHT22;43961;52.940;6.834;2023-02-11T04:44:16;6.70;99.90
57026;DHT22;43961;52.940;6.834;2023-02-11T04:46:42;6.70;99.90
57026;DHT22;43961;52.940;6.834;2023-02-11T04:49:13;6.70;99.90
57026;DHT22;43961;52.940;6.834;2023-02-11T04:51:40;6.70;99.90
57026;DHT22;43961;52.940;6.834;2023-02-11T04:54:06;6.70;99.90
57026;DHT22;43961;52.940;6.834;2023-02-11T04:56:31;6.80;99.90
57026;DHT22;43961;52.940;6.834;2023-02-11T04:58:57;6.80;99.90
57026;DHT22;43961;52.940;6.834;2023-02-11T05:01:22;6.70;99.90
57026;DHT22;43961;52.940;6.834;2023-02-11T05:03:48;6.80;99.90
57026;DHT22;43961;52.940;6.834;2023-02-11T05:06:15;6.80;99.90
57026;DHT22;43961;52.940;6.834;2023-02-11T05:08:41;6.80;99.90
57026;DHT22;43961;52.940;6.834;2023-02-11T05:11:08;6.80;99.90
57026;DHT22;43961;52.940;6.834;2023-02-11T05:13:39;6.80;99.90
57026;DHT22;43961;52.940;6.834;2023-02-11T05:16:04;6.80;99.90
57026;DHT22;43961;52.940;6.834;2023-02-11T05:18:30;6.80;99.90
57026;DHT22;43961;52.940;6.834;2023-02-11T05:20:57;6.80;99.90
57026;DHT22;43961;52.940;6.834;2023-02-11T05:23:23;6.80;99.90
57026;DHT22;43961;52.940;6.834;2023-02-11T05:25:49;6.80;99.90
57026;DHT22;43961;52.940;6.834;2023-02-11T05:28:15;6.80;99.90
57026;DHT22;43961;52.940;6.834;2023-02-11T05:30:40;6.80;99.90
57026;DHT22;43961;52.940;6.834;2023-02-11T05:33:06;6.80;99.90
57026;DHT22;43961;52.940;6.834;2023-02-11T05:35:32;6.80;99.90
57026;DHT22;43961;52.940;6.834;2023-02-11T05:37:57;6.80;99.90
57026;DHT22;43961;52.940;6.834;2023-02-11T05:40:23;6.80;99.90
57026;DHT22;43961;52.940;6.834;2023-02-11T05:42:49;6.80;99.90
57026;DHT22;43961;52.940;6.834;2023-02-11T05:45:14;6.80;99.90
57026;DHT22;43961;52.940;6.834;2023-02-11T05:47:40;6.80;99.90
57026;DHT22;43961;52.940;6.834;2023-02-11T05:50:06;6.80;99.90
57026;DHT22;43961;52.940;6.834;2023-02-11T05:52:32;6.70;99.90
57026;DHT22;43961;52.940;6.834;2023-02-11T05:54:57;6.80;99.90
57026;DHT22;43961;52.940;6.834;2023-02-11T05:57:23;6.80;99.90
57026;DHT22;43961;52.940;6.834;2023-02-11T05:59:49;6.70;99.90
57026;DHT22;43961;52.940;6.834;2023-02-11T06:02:14;6.70;99.90
57026;DHT22;43961;52.940;6.834;2023-02-11T06:04:40;6.70;99.90
57026;DHT22;43961;52.940;6.834;2023-02-11T06:07:06;6.70;99.90
57026;DHT22;43961;52.940;6.834;2023-02-11T06:09:31;6.70;99.90
57026;DHT22;43961;52.940;6.834;2023-02-11T06:11:57;6.70;99.90
57026;DHT22;43961;52.940;6.834;2023-02-11T06:14:23;6.70;99.90
57026;DHT22;43961;52.940;6.834;2023-02-11T06:16:48;6.70;99.90
57026;DHT22;43961;52.940;6.834;2023-02-11T06:19:14;6.70;99.90
57026;DHT22;43961;52.940;6.834;2023-02-11T06:21:40;6.70;99.90
57026;DHT22;43961;52.940;6.834;2023-02-11T06:24:06;6.70;99.90
57026;DHT22;43961;52.940;6.834;2023-02-11T06:26:31;6.70;99.90
57026;DHT22;43961;52.940;6.834;2023-02-11T06:29:00;6.70;99.90
57026;DHT22;43961;52.940;6.834;2023-02-11T06:31:26;6.70;99.90
57026;DHT22;43961;52.940;6.834;2023-02-11T06:33:52;6.60;99.90
57026;DHT22;43961;52.940;6.834;2023-02-11T06:36:26;6.60;99.90
57026;DHT22;43961;52.940;6.834;2023-02-11T06:38:52;6.60;99.90
57026;DHT22;43961;52.940;6.834;2023-02-11T06:41:18;6.60;99.90
57026;DHT22;43961;52.940;6.834;2023-02-11T06:43:45;6.60;99.90
57026;DHT22;43961;52.940;6.834;2023-02-11T06:46:13;6.60;99.90
57026;DHT22;43961;52.940;6.834;2023-02-11T06:48:39;6.60;99.90
57026;DHT22;43961;52.940;6.834;2023-02-11T06:51:08;6.60;99.90
57026;DHT22;43961;52.940;6.834;2023-02-11T06:53:36;6.60;99.90
57026;DHT22;43961;52.940;6.834;2023-02-11T06:56:03;6.60;99.90
57026;DHT22;43961;52.940;6.834;2023-02-11T06:58:30;6.60;99.90
57026;DHT22;43961;52.940;6.834;2023-02-11T07:00:55;6.60;99.90
57026;DHT22;43961;52.940;6.834;2023-02-11T07:03:22;6.60;99.90
57026;DHT22;43961;52.940;6.834;2023-02-11T07:05:49;6.60;99.90
57026;DHT22;43961;52.940;6.834;2023-02-11T07:08:14;6.60;99.90
57026;DHT22;43961;52.940;6.834;2023-02-11T07:10:40;6.60;99.90
57026;DHT22;43961;52.940;6.834;2023-02-11T07:13:06;6.60;99.90
57026;DHT22;43961;52.940;6.834;2023-02-11T07:15:32;6.60;99.90
57026;DHT22;43961;52.940;6.834;2023-02-11T07:17:58;6.70;99.90
57026;DHT22;43961;52.940;6.834;2023-02-11T07:20:25;6.70;99.90
57026;DHT22;43961;52.940;6.834;2023-02-11T07:22:51;6.70;99.90
57026;DHT22;43961;52.940;6.834;2023-02-11T07:25:17;6.70;99.90
57026;DHT22;43961;52.940;6.834;2023-02-11T07:27:43;6.70;99.90
57026;DHT22;43961;52.940;6.834;2023-02-11T07:30:09;6.70;99.90
57026;DHT22;43961;52.940;6.834;2023-02-11T07:32:35;6.70;99.90
57026;DHT22;43961;52.940;6.834;2023-02-11T07:35:00;6.70;99.90
57026;DHT22;43961;52.940;6.834;2023-02-11T07:37:26;6.70;99.90
57026;DHT22;43961;52.940;6.834;2023-02-11T07:39:52;6.70;99.90
57026;DHT22;43961;52.940;6.834;2023-02-11T07:42:19;6.70;99.90
57026;DHT22;43961;52.940;6.834;2023-02-11T07:44:45;6.70;99.90
57026;DHT22;43961;52.940;6.834;2023-02-11T07:47:11;6.80;99.90
57026;DHT22;43961;52.940;6.834;2023-02-11T07:49:36;6.80;99.90
57026;DHT22;43961;52.940;6.834;2023-02-11T07:52:02;6.80;99.90
57026;DHT22;43961;52.940;6.834;2023-02-11T07:54:28;6.80;99.90
57026;DHT22;43961;52.940;6.834;2023-02-11T07:56:53;6.80;99.90
57026;DHT22;43961;52.940;6.834;2023-02-11T07:59:19;6.90;99.90
57026;DHT22;43961;52.940;6.834;2023-02-11T08:01:45;6.80;99.90
57026;DHT22;43961;52.940;6.834;2023-02-11T08:04:10;6.90;99.90
57026;DHT22;43961;52.940;6.834;2023-02-11T08:06:40;6.90;99.90
57026;DHT22;43961;52.940;6.834;2023-02-11T08:09:07;6.90;99.90
57026;DHT22;43961;52.940;6.834;2023-02-11T08:11:34;6.90;99.90
57026;DHT22;43961;52.940;6.834;2023-02-11T08:13:59;7.00;99.90
57026;DHT22;43961;52.940;6.834;2023-02-11T08:16:33;7.00;99.90
57026;DHT22;43961;52.940;6.834;2023-02-11T08:19:02;7.00;99.90
57026;DHT22;43961;52.940;6.834;2023-02-11T08:21:28;7.10;99.90
57026;DHT22;43961;52.940;6.834;2023-02-11T08:23:55;7.10;99.90
57026;DHT22;43961;52.940;6.834;2023-02-11T08:26:23;7.10;99.90
57026;DHT22;43961;52.940;6.834;2023-02-11T08:28:51;7.10;99.90
57026;DHT22;43961;52.940;6.834;2023-02-11T08:31:20;7.20;99.90
57026;DHT22;43961;52.940;6.834;2023-02-11T08:33:47;7.20;99.90
57026;DHT22;43961;52.940;6.834;2023-02-11T08:36:19;7.20;99.90
57026;DHT22;43961;52.940;6.834;2023-02-11T08:38:45;7.20;99.90
57026;DHT22;43961;52.940;6.834;2023-02-11T08:41:11;7.30;99.90
57026;DHT22;43961;52.940;6.834;2023-02-11T08:43:40;7.30;99.90
57026;DHT22;43961;52.940;6.834;2023-02-11T08:46:08;7.30;99.90
57026;DHT22;43961;52.940;6.834;2023-02-11T08:48:33;7.40;99.90
57026;DHT22;43961;52.940;6.834;2023-02-11T08:50:59;7.40;99.90
57026;DHT22;43961;52.940;6.834;2023-02-11T08:53:25;7.40;99.90
57026;DHT22;43961;52.940;6.834;2023-02-11T08:55:52;7.40;99.90
57026;DHT22;43961;52.940;6.834;2023-02-11T08:58:18;7.50;99.90
57026;DHT22;43961;52.940;6.834;2023-02-11T09:00:45;7.50;99.90
57026;DHT22;43961;52.940;6.834;2023-02-11T09:03:12;7.50;99.90
57026;DHT22;43961;52.940;6.834;2023-02-11T09:05:46;7.60;99.90
57026;DHT22;43961;52.940;6.834;2023-02-11T09:08:12;7.60;99.90
57026;DHT22;43961;52.940;6.834;2023-02-11T09:10:38;7.60;99.90
57026;DHT22;43961;52.940;6.834;2023-02-11T09:13:05;7.60;99.90
57026;DHT22;43961;52.940;6.834;2023-02-11T09:15:31;7.60;99.90
57026;DHT22;43961;52.940;6.834;2023-02-11T09:17:57;7.60;99.90
57026;DHT22;43961;52.940;6.834;2023-02-11T09:20:23;7.70;99.90
57026;DHT22;43961;52.940;6.834;2023-02-11T09:22:51;7.70;99.90
57026;DHT22;43961;52.940;6.834;2023-02-11T09:25:17;7.70;99.90
57026;DHT22;43961;52.940;6.834;2023-02-11T09:27:43;7.70;99.90
57026;DHT22;43961;52.940;6.834;2023-02-11T09:30:09;7.80;99.90
57026;DHT22;43961;52.940;6.834;2023-02-11T09:32:34;7.80;99.90
57026;DHT22;43961;52.940;6.834;2023-02-11T09:35:00;7.90;99.90
57026;DHT22;43961;52.940;6.834;2023-02-11T09:37:26;7.90;99.90
57026;DHT22;43961;52.940;6.834;2023-02-11T09:39:51;7.90;99.90
57026;DHT22;43961;52.940;6.834;2023-02-11T09:45:02;7.90;99.90
57026;DHT22;43961;52.940;6.834;2023-02-11T09:47:34;7.90;99.90
57026;DHT22;43961;52.940;6.834;2023-02-11T09:50:06;8.00;99.90
57026;DHT22;43961;52.940;6.834;2023-02-11T09:52:43;8.00;99.90
57026;DHT22;43961;52.940;6.834;2023-02-11T09:55:42;8.00;99.90
57026;DHT22;43961;52.940;6.834;2023-02-11T09:58:20;8.00;99.90
57026;DHT22;43961;52.940;6.834;2023-02-11T10:01:22;8.10;99.90
57026;DHT22;43961;52.940;6.834;2023-02-11T10:17:41;8.30;99.90
57026;DHT22;43961;52.940;6.834;2023-02-11T10:20:22;8.40;99.90
57026;DHT22;43961;52.940;6.834;2023-02-11T10:22:54;8.40;99.90
57026;DHT22;43961;52.940;6.834;2023-02-11T10:25:37;8.40;99.90
57026;DHT22;43961;52.940;6.834;2023-02-11T10:30:47;8.50;99.90
57026;DHT22;43961;52.940;6.834;2023-02-11T10:36:00;8.50;99.90
57026;DHT22;43961;52.940;6.834;2023-02-11T10:38:26;8.60;99.90
57026;DHT22;43961;52.940;6.834;2023-02-11T10:40:52;8.70;99.90
57026;DHT22;43961;52.940;6.834;2023-02-11T10:43:21;8.60;99.90
57026;DHT22;43961;52.940;6.834;2023-02-11T10:45:50;8.70;99.90
57026;DHT22;43961;52.940;6.834;2023-02-11T10:51:22;8.80;99.90
57026;DHT22;43961;52.940;6.834;2023-02-11T10:56:35;8.80;99.90
57026;DHT22;43961;52.940;6.834;2023-02-11T10:59:13;8.90;99.90
57026;DHT22;43961;52.940;6.834;2023-02-11T11:02:00;8.90;99.90
57026;DHT22;43961;52.940;6.834;2023-02-11T11:04:34;8.90;99.90
57026;DHT22;43961;52.940;6.834;2023-02-11T11:07:25;9.00;99.90
57026;DHT22;43961;52.940;6.834;2023-02-11T11:12:34;9.10;99.90
57026;DHT22;43961;52.940;6.834;2023-02-11T11:15:24;9.10;99.90
57026;DHT22;43961;52.940;6.834;2023-02-11T11:17:52;9.20;99.90
57026;DHT22;43961;52.940;6.834;2023-02-11T11:20:33;9.20;99.90
57026;DHT22;43961;52.940;6.834;2023-02-11T11:23:18;9.20;99.90
57026;DHT22;43961;52.940;6.834;2023-02-11T11:28:30;9.30;99.90
57026;DHT22;43961;52.940;6.834;2023-02-11T11:30:56;9.40;99.90
57026;DHT22;43961;52.940;6.834;2023-02-11T11:33:27;9.40;99.90
57026;DHT22;43961;52.940;6.834;2023-02-11T11:36:00;9.40;99.90
57026;DHT22;43961;52.940;6.834;2023-02-11T11:38:28;9.40;99.90
57026;DHT22;43961;52.940;6.834;2023-02-11T11:41:27;9.50;99.90
57026;DHT22;43961;52.940;6.834;2023-02-11T11:46:43;9.40;99.90
57026;DHT22;43961;52.940;6.834;2023-02-11T11:49:28;9.40;99.90
57026;DHT22;43961;52.940;6.834;2023-02-11T11:52:23;9.50;99.90
57026;DHT22;43961;52.940;6.834;2023-02-11T11:55:27;9.50;99.90
57026;DHT22;43961;52.940;6.834;2023-02-11T11:57:55;9.50;99.90
57026;DHT22;43961;52.940;6.834;2023-02-11T12:03:28;9.50;99.90
57026;DHT22;43961;52.940;6.834;2023-02-11T12:14:58;9.60;99.90
57026;DHT22;43961;52.940;6.834;2023-02-11T12:39:26;9.60;99.90
57026;DHT22;43961;52.940;6.834;2023-02-11T12:42:22;9.60;99.90
57026;DHT22;43961;52.940;6.834;2023-02-11T12:55:36;9.70;99.90
57026;DHT22;43961;52.940;6.834;2023-02-11T12:58:03;9.70;99.90
57026;DHT22;43961;52.940;6.834;2023-02-11T13:00:47;9.70;99.90
57026;DHT22;43961;52.940;6.834;2023-02-11T13:03:22;9.80;99.90
57026;DHT22;43961;52.940;6.834;2023-02-11T13:05:59;9.70;99.90
57026;DHT22;43961;52.940;6.834;2023-02-11T13:08:39;9.80;99.90
57026;DHT22;43961;52.940;6.834;2023-02-11T13:11:11;9.80;99.90
57026;DHT22;43961;52.940;6.834;2023-02-11T13:13:51;9.90;99.90
57026;DHT22;43961;52.940;6.834;2023-02-11T13:22:01;10.00;99.90
57026;DHT22;43961;52.940;6.834;2023-02-11T13:24:54;10.00;99.90
57026;DHT22;43961;52.940;6.834;2023-02-11T13:30:36;10.10;99.90
57026;DHT22;43961;52.940;6.834;2023-02-11T13:33:31;10.20;99.90
57026;DHT22;43961;52.940;6.834;2023-02-11T13:38:29;10.30;99.90
57026;DHT22;43961;52.940;6.834;2023-02-11T13:41:17;10.40;99.90
57026;DHT22;43961;52.940;6.834;2023-02-11T13:49:39;10.60;99.90
57026;DHT22;43961;52.940;6.834;2023-02-11T13:54:48;10.60;99.90
57026;DHT22;43961;52.940;6.834;2023-02-11T13:59:50;10.60;99.90
57026;DHT22;43961;52.940;6.834;2023-02-11T14:08:17;10.60;99.90
57026;DHT22;43961;52.940;6.834;2023-02-11T14:11:40;10.60;99.90
57026;DHT22;43961;52.940;6.834;2023-02-11T14:16:22;10.60;99.90
57026;DHT22;43961;52.940;6.834;2023-02-11T14:21:21;10.50;99.90
57026;DHT22;43961;52.940;6.834;2023-02-11T14:23:49;10.50;99.90
57026;DHT22;43961;52.940;6.834;2023-02-11T14:28:52;10.50;99.90
57026;DHT22;43961;52.940;6.834;2023-02-11T14:31:42;10.40;99.90
57026;DHT22;43961;52.940;6.834;2023-02-11T14:37:13;10.50;99.90
57026;DHT22;43961;52.940;6.834;2023-02-11T14:42:24;10.50;99.90
57026;DHT22;43961;52.940;6.834;2023-02-11T14:44:54;10.40;99.90
57026;DHT22;43961;52.940;6.834;2023-02-11T14:47:42;10.40;99.90
57026;DHT22;43961;52.940;6.834;2023-02-11T14:50:34;10.30;99.90
57026;DHT22;43961;52.940;6.834;2023-02-11T14:53:03;10.30;99.90
57026;DHT22;43961;52.940;6.834;2023-02-11T14:55:40;10.30;99.90
57026;DHT22;43961;52.940;6.834;2023-02-11T15:01:04;10.20;99.90
57026;DHT22;43961;52.940;6.834;2023-02-11T15:03:32;10.20;99.90
57026;DHT22;43961;52.940;6.834;2023-02-11T15:06:25;10.20;99.90
57026;DHT22;43961;52.940;6.834;2023-02-11T15:09:03;10.10;99.90
57026;DHT22;43961;52.940;6.834;2023-02-11T15:11:37;10.10;99.90
57026;DHT22;43961;52.940;6.834;2023-02-11T15:14:24;10.00;99.90
57026;DHT22;43961;52.940;6.834;2023-02-11T15:16:52;10.00;99.90
57026;DHT22;43961;52.940;6.834;2023-02-11T15:19:38;10.00;99.90
57026;DHT22;43961;52.940;6.834;2023-02-11T15:22:19;9.90;99.90
57026;DHT22;43961;52.940;6.834;2023-02-11T15:27:40;9.90;99.90
57026;DHT22;43961;52.940;6.834;2023-02-11T15:30:28;9.90;99.90
57026;DHT22;43961;52.940;6.834;2023-02-11T15:32:56;9.80;99.90
57026;DHT22;43961;52.940;6.834;2023-02-11T15:35:33;9.80;99.90
57026;DHT22;43961;52.940;6.834;2023-02-11T15:38:00;9.80;99.90
57026;DHT22;43961;52.940;6.834;2023-02-11T15:40:29;9.80;99.90
57026;DHT22;43961;52.940;6.834;2023-02-11T15:43:03;9.80;99.90
57026;DHT22;43961;52.940;6.834;2023-02-11T15:45:42;9.70;99.90
57026;DHT22;43961;52.940;6.834;2023-02-11T15:48:14;9.70;99.90
57026;DHT22;43961;52.940;6.834;2023-02-11T15:50:42;9.70;99.90
57026;DHT22;43961;52.940;6.834;2023-02-11T15:53:20;9.70;99.90
57026;DHT22;43961;52.940;6.834;2023-02-11T15:55:49;9.70;99.90
57026;DHT22;43961;52.940;6.834;2023-02-11T15:58:15;9.70;99.90
57026;DHT22;43961;52.940;6.834;2023-02-11T16:00:47;9.70;99.90
57026;DHT22;43961;52.940;6.834;2023-02-11T16:03:28;9.60;99.90
57026;DHT22;43961;52.940;6.834;2023-02-11T16:06:42;9.70;99.90
57026;DHT22;43961;52.940;6.834;2023-02-11T16:09:05;9.70;99.90
57026;DHT22;43961;52.940;6.834;2023-02-11T16:14:31;9.50;99.90
57026;DHT22;43961;52.940;6.834;2023-02-11T16:17:12;9.60;99.90
57026;DHT22;43961;52.940;6.834;2023-02-11T16:19:47;9.50;99.90
57026;DHT22;43961;52.940;6.834;2023-02-11T16:22:24;9.50;99.90
57026;DHT22;43961;52.940;6.834;2023-02-11T16:24:52;9.50;99.90
57026;DHT22;43961;52.940;6.834;2023-02-11T16:27:23;9.50;99.90
57026;DHT22;43961;52.940;6.834;2023-02-11T16:29:50;9.40;99.90
57026;DHT22;43961;52.940;6.834;2023-02-11T16:32:20;9.40;99.90
57026;DHT22;43961;52.940;6.834;2023-02-11T16:34:47;9.40;99.90
57026;DHT22;43961;52.940;6.834;2023-02-11T16:37:13;9.40;99.90
57026;DHT22;43961;52.940;6.834;2023-02-11T16:39:38;9.40;99.90
57026;DHT22;43961;52.940;6.834;2023-02-11T16:42:05;9.30;99.90
57026;DHT22;43961;52.940;6.834;2023-02-11T16:44:34;9.30;99.90
57026;DHT22;43961;52.940;6.834;2023-02-11T16:47:00;9.30;99.90
57026;DHT22;43961;52.940;6.834;2023-02-11T16:49:40;9.10;99.90
57026;DHT22;43961;52.940;6.834;2023-02-11T16:52:12;9.20;99.90
57026;DHT22;43961;52.940;6.834;2023-02-11T16:54:38;9.10;99.90
57026;DHT22;43961;52.940;6.834;2023-02-11T16:57:15;9.10;99.90
57026;DHT22;43961;52.940;6.834;2023-02-11T16:59:42;9.10;99.90
57026;DHT22;43961;52.940;6.834;2023-02-11T17:02:22;9.10;99.90
57026;DHT22;43961;52.940;6.834;2023-02-11T17:04:49;9.10;99.90
57026;DHT22;43961;52.940;6.834;2023-02-11T17:07:16;9.10;99.90
57026;DHT22;43961;52.940;6.834;2023-02-11T17:09:42;9.00;99.90
57026;DHT22;43961;52.940;6.834;2023-02-11T17:12:07;9.10;99.90
57026;DHT22;43961;52.940;6.834;2023-02-11T17:14:33;9.00;99.90
57026;DHT22;43961;52.940;6.834;2023-02-11T17:16:59;9.00;99.90
57026;DHT22;43961;52.940;6.834;2023-02-11T17:19:26;8.90;99.90
57026;DHT22;43961;52.940;6.834;2023-02-11T17:21:52;8.90;99.90
57026;DHT22;43961;52.940;6.834;2023-02-11T17:24:19;8.90;99.90
57026;DHT22;43961;52.940;6.834;2023-02-11T17:26:45;8.90;99.90
57026;DHT22;43961;52.940;6.834;2023-02-11T17:29:15;8.80;99.90
57026;DHT22;43961;52.940;6.834;2023-02-11T17:31:41;8.80;99.90
57026;DHT22;43961;52.940;6.834;2023-02-11T17:34:07;8.80;99.90
57026;DHT22;43961;52.940;6.834;2023-02-11T17:36:33;8.80;99.90
57026;DHT22;43961;52.940;6.834;2023-02-11T17:38:59;8.80;99.90
57026;DHT22;43961;52.940;6.834;2023-02-11T17:41:26;8.80;99.90
57026;DHT22;43961;52.940;6.834;2023-02-11T17:43:52;8.70;99.90
57026;DHT22;43961;52.940;6.834;2023-02-11T17:46:18;8.70;99.90
57026;DHT22;43961;52.940;6.834;2023-02-11T17:48:44;8.70;99.90
57026;DHT22;43961;52.940;6.834;2023-02-11T17:51:28;8.70;99.90
57026;DHT22;43961;52.940;6.834;2023-02-11T17:53:56;8.70;99.90
57026;DHT22;43961;52.940;6.834;2023-02-11T17:56:22;8.70;99.90
57026;DHT22;43961;52.940;6.834;2023-02-11T17:58:49;8.60;99.90
57026;DHT22;43961;52.940;6.834;2023-02-11T18:01:15;8.60;99.90
57026;DHT22;43961;52.940;6.834;2023-02-11T18:03:40;8.60;99.90
57026;DHT22;43961;52.940;6.834;2023-02-11T18:06:07;8.50;99.90
57026;DHT22;43961;52.940;6.834;2023-02-11T18:08:34;8.50;99.90
57026;DHT22;43961;52.940;6.834;2023-02-11T18:11:00;8.50;99.90
57026;DHT22;43961;52.940;6.834;2023-02-11T18:13:26;8.50;99.90
57026;DHT22;43961;52.940;6.834;2023-02-11T18:15:52;8.50;99.90
57026;DHT22;43961;52.940;6.834;2023-02-11T18:18:18;8.50;99.90
57026;DHT22;43961;52.940;6.834;2023-02-11T18:20:44;8.50;99.90
57026;DHT22;43961;52.940;6.834;2023-02-11T18:23:11;8.40;99.90
57026;DHT22;43961;52.940;6.834;2023-02-11T18:25:40;8.40;99.90
57026;DHT22;43961;52.940;6.834;2023-02-11T18:28:06;8.40;99.90
57026;DHT22;43961;52.940;6.834;2023-02-11T18:30:31;8.40;99.90
57026;DHT22;43961;52.940;6.834;2023-02-11T18:32:58;8.40;99.90
57026;DHT22;43961;52.940;6.834;2023-02-11T18:35:23;8.40;99.90